createdAt,value
2022-09-14T00:03:20.823Z,522.55
2022-09-14T00:08:52.605Z,522.38
2022-09-14T00:14:24.284Z,522.55
2022-09-14T00:19:55.573Z,522.38
2022-09-14T00:25:26.885Z,522.03
2022-09-14T00:30:58.689Z,521.41
2022-09-14T00:36:30.667Z,521.41
2022-09-14T00:42:02.329Z,521.41
2022-09-14T00:47:33.987Z,521.94
2022-09-14T00:53:05.652Z,521.59
2022-09-14T00:58:37.244Z,523.25
2022-09-14T01:04:08.764Z,525.00
2022-09-14T01:09:40.428Z,526.14
2022-09-14T01:15:12.144Z,527.02
2022-09-14T01:20:43.940Z,527.55
2022-09-14T01:26:15.619Z,529.47
2022-09-14T01:31:47.033Z,530.35
2022-09-14T01:37:18.803Z,530.35
2022-09-14T01:42:50.568Z,530.52
2022-09-14T01:53:51.454Z,531.14
2022-09-14T01:59:23.257Z,531.31
2022-09-14T02:04:55.053Z,531.66
2022-09-14T02:15:55.815Z,531.49
2022-09-14T02:21:27.081Z,531.49
2022-09-14T02:37:56.918Z,531.31
2022-09-14T02:43:28.218Z,531.84
2022-09-14T02:48:59.520Z,532.89
2022-09-14T02:54:30.997Z,533.77
2022-09-14T03:05:31.255Z,534.91
2022-09-14T03:11:02.663Z,535.78
2022-09-14T03:16:34.099Z,535.96
2022-09-14T03:22:05.698Z,536.49
2022-09-14T03:27:37.102Z,536.66
2022-09-14T03:38:39.809Z,537.54
2022-09-14T04:00:39.560Z,538.59
2022-09-14T04:06:11.192Z,538.41
2022-09-14T04:11:42.618Z,538.24
2022-09-14T04:17:14.252Z,537.19
2022-09-14T04:22:45.594Z,536.13
2022-09-14T04:39:15.889Z,536.31
2022-09-14T04:50:18.452Z,537.89
2022-09-14T04:55:49.733Z,538.06
2022-09-14T05:01:21.262Z,538.41
2022-09-14T05:06:52.735Z,538.06
2022-09-14T05:12:24.095Z,537.71
2022-09-14T05:17:55.461Z,537.71
2022-09-14T05:28:56.181Z,538.41
2022-09-14T05:34:27.499Z,538.59
2022-09-14T05:39:59.021Z,538.59
2022-09-14T05:45:30.193Z,538.94
2022-09-14T05:51:01.482Z,539.20
2022-09-14T05:58:53.266Z,540.78
2022-09-14T06:04:25.062Z,539.91
2022-09-14T06:15:25.619Z,538.94
2022-09-14T06:20:56.990Z,538.59
2022-09-14T06:26:28.351Z,538.41
2022-09-14T06:31:59.773Z,538.24
2022-09-14T06:37:31.080Z,537.89
2022-09-14T06:43:02.460Z,537.71
2022-09-14T06:48:34.326Z,537.71
2022-09-14T06:54:05.980Z,538.24
2022-09-14T06:59:37.327Z,538.94
2022-09-14T07:05:09.127Z,539.03
2022-09-14T07:10:40.383Z,539.20
2022-09-14T07:21:41.695Z,539.03
2022-09-14T07:27:13.344Z,539.03
2022-09-14T07:32:45.096Z,539.38
2022-09-14T07:38:27.070Z,539.20
2022-09-14T07:43:50.046Z,539.03
2022-09-14T07:49:21.906Z,538.77
2022-09-14T08:00:24.992Z,538.59
2022-09-14T08:05:57.082Z,538.41
2022-09-14T08:11:28.769Z,537.71
2022-09-14T08:17:00.642Z,536.66
2022-09-14T08:22:32.068Z,536.66
2022-09-14T08:28:03.661Z,537.01
2022-09-14T08:33:35.112Z,537.54
2022-09-14T08:39:06.605Z,537.19
2022-09-14T08:44:38.394Z,537.01
2022-09-14T08:50:09.654Z,537.36
2022-09-14T08:55:40.796Z,537.71
2022-09-14T09:01:12.248Z,537.54
2022-09-14T09:06:43.388Z,536.49
2022-09-14T09:12:14.860Z,535.78
2022-09-14T09:17:46.337Z,535.78
2022-09-14T09:23:17.915Z,535.43
2022-09-14T09:28:49.168Z,535.08
2022-09-14T09:34:20.550Z,534.64
2022-09-14T09:39:51.971Z,534.29
2022-09-14T09:50:52.958Z,533.77
2022-09-14T09:56:24.262Z,533.77
2022-09-14T10:07:27.407Z,534.64
2022-09-14T10:12:59.183Z,534.91
2022-09-14T10:18:30.782Z,535.78
2022-09-14T10:24:02.478Z,537.36
2022-09-14T10:29:33.970Z,537.36
2022-09-14T10:35:05.483Z,537.89
2022-09-14T10:40:37.094Z,538.24
2022-09-14T10:46:08.355Z,539.03
2022-09-14T10:51:39.737Z,540.08
2022-09-14T10:57:11.138Z,540.96
2022-09-14T11:02:42.445Z,541.84
2022-09-14T11:08:13.686Z,542.01
2022-09-14T11:13:45.362Z,542.54
2022-09-14T11:19:16.874Z,542.19
2022-09-14T11:24:48.100Z,542.89
2022-09-14T11:30:19.442Z,543.42
2022-09-14T11:35:50.742Z,543.77
2022-09-14T11:41:22.512Z,544.03
2022-09-14T11:46:57.562Z,544.38
2022-09-14T11:49:17.334Z,546.31
2022-09-14T11:54:48.650Z,546.14
2022-09-14T12:00:20.051Z,547.01
2022-09-14T12:05:51.362Z,547.54
2022-09-14T12:11:22.771Z,547.98
2022-09-14T12:16:54.255Z,548.50
2022-09-14T12:22:25.728Z,548.50
2022-09-14T12:27:57.202Z,548.50
2022-09-14T12:33:28.403Z,548.33
2022-09-14T12:38:59.799Z,547.98
2022-09-14T12:50:00.503Z,547.72
2022-09-14T12:55:31.904Z,547.19
2022-09-14T13:01:03.167Z,547.01
2022-09-14T13:06:34.483Z,547.19
2022-09-14T13:12:05.838Z,547.36
2022-09-14T13:17:37.597Z,547.89
2022-09-14T13:23:08.917Z,548.50
2022-09-14T13:28:40.304Z,548.50
2022-09-14T13:34:11.466Z,549.21
2022-09-14T13:39:45.124Z,550.26
2022-09-14T13:45:18.521Z,551.67
2022-09-14T13:50:50.009Z,552.81
2022-09-14T13:56:21.239Z,553.33
2022-09-14T14:07:22.157Z,552.37
2022-09-14T14:12:53.308Z,551.84
2022-09-14T14:18:24.782Z,552.02
2022-09-14T14:24:12.725Z,551.84
2022-09-14T14:29:28.139Z,551.84
2022-09-14T14:34:59.619Z,552.37
2022-09-14T14:40:31.323Z,552.54
2022-09-14T14:46:02.694Z,552.02
2022-09-14T14:59:23.081Z,551.31
2022-09-14T15:04:54.470Z,549.91
2022-09-14T15:10:25.760Z,549.38
2022-09-14T15:15:57.143Z,548.15
2022-09-14T15:34:47.560Z,543.85
2022-09-14T15:40:18.985Z,544.03
2022-09-14T15:45:50.641Z,543.85
2022-09-14T15:56:51.590Z,540.96
2022-09-14T16:04:43.365Z,539.91
2022-09-14T16:15:44.321Z,541.13
2022-09-14T16:21:16.176Z,541.84
2022-09-14T16:26:48.159Z,541.84
2022-09-14T16:34:25.040Z,542.89
2022-09-14T16:39:56.137Z,543.06
2022-09-14T16:45:27.638Z,543.77
2022-09-14T16:50:59.190Z,544.56
2022-09-14T17:07:29.525Z,545.78
2022-09-14T17:13:01.279Z,545.96
2022-09-14T17:18:32.660Z,546.14
2022-09-14T17:29:33.303Z,546.84
2022-09-14T17:35:04.700Z,546.66
2022-09-14T17:40:36.071Z,547.19
2022-09-14T17:46:07.140Z,546.84
2022-09-14T17:51:38.867Z,546.49
2022-09-14T17:57:10.614Z,545.78
2022-09-14T18:02:41.901Z,545.43
2022-09-14T18:08:13.110Z,545.26
2022-09-14T18:13:44.449Z,545.61
2022-09-14T18:19:15.746Z,545.78
2022-09-14T18:24:47.450Z,545.78
2022-09-14T18:30:18.910Z,545.43
2022-09-14T18:35:50.234Z,544.56
2022-09-14T18:46:51.468Z,544.56
2022-09-14T18:52:22.965Z,544.73
2022-09-14T18:57:54.191Z,544.56
2022-09-14T19:03:26.228Z,544.38
2022-09-14T19:08:57.794Z,545.08
2022-09-14T19:14:29.652Z,545.08
2022-09-14T19:20:02.225Z,545.43
2022-09-14T19:25:33.747Z,544.91
2022-09-14T19:31:05.684Z,544.56
2022-09-14T19:36:37.501Z,544.20
2022-09-14T19:42:09.422Z,544.03
2022-09-14T19:47:40.897Z,543.59
2022-09-14T19:53:12.254Z,543.59
2022-09-14T19:58:44.311Z,542.89
2022-09-14T20:04:15.701Z,542.54
2022-09-14T20:09:47.157Z,542.19
2022-09-14T20:15:18.494Z,542.01
2022-09-14T20:20:49.835Z,542.19
2022-09-14T20:26:21.653Z,542.01
2022-09-14T20:31:53.135Z,542.19
2022-09-14T20:37:24.711Z,541.48
2022-09-14T20:42:55.919Z,541.48
2022-09-14T20:48:27.493Z,541.31
2022-09-14T20:53:59.023Z,541.31
2022-09-14T20:59:30.260Z,540.96
2022-09-14T21:05:01.625Z,540.96
2022-09-14T21:10:32.901Z,541.66
2022-09-14T21:16:04.574Z,542.01
2022-09-14T21:21:36.057Z,542.36
2022-09-14T21:27:07.363Z,541.84
2022-09-14T21:32:38.592Z,541.48
2022-09-14T21:38:09.711Z,541.31
2022-09-14T21:43:41.005Z,540.96
2022-09-14T21:49:12.537Z,540.61
2022-09-14T21:54:44.197Z,540.26
2022-09-14T22:00:15.498Z,540.26
2022-09-14T22:05:46.899Z,540.43
2022-09-14T22:11:21.156Z,540.08
2022-09-14T22:16:49.529Z,539.73
2022-09-14T22:22:21.137Z,539.91
2022-09-14T22:27:52.806Z,539.38
2022-09-14T22:33:24.694Z,539.03
2022-09-14T22:38:56.359Z,538.94
2022-09-14T22:44:27.970Z,539.20
2022-09-14T22:49:59.629Z,539.38
2022-09-14T22:55:31.491Z,539.73
2022-09-14T23:01:03.222Z,539.73
2022-09-14T23:06:34.730Z,539.38
2022-09-14T23:12:06.208Z,539.03
2022-09-14T23:17:37.512Z,539.20
2022-09-14T23:23:08.886Z,539.20
2022-09-14T23:28:40.294Z,539.03
2022-09-14T23:34:11.975Z,538.77
2022-09-14T23:39:43.270Z,538.77
2022-09-14T23:45:14.565Z,539.03
2022-09-14T23:50:46.204Z,538.77
2022-09-14T23:56:17.547Z,538.59
